Terminal Aerodrome Forecast
Issued by NWS Sterling, VA

Current Version | Previous Version | Text Only | Print | Product List | Glossary On
Versions: 1 2 3 4 5 6 7 8 9 10 11 12 13 14 15 16 17 18 19 20 21 22 23 24 25
567
FTUS41 KLWX 281735
TAFCHO
TAF
KCHO 281735Z 2818/2918 22006KT P6SM SCT035 OVC080
     FM282300 28004KT P6SM SCT050 BKN070
     FM290500 34004KT P6SM SCT025 BKN060
     FM290900 01006KT P6SM BKN015 BKN025
     FM291400 01007KT P6SM SCT025 BKN035
     FM291600 01007KT P6SM FEW030 SCT070=

USA.gov is the U.S. government's official web portal to all federal, state and local government web resources and services.